createdAt,value
2022-09-28T00:01:23.691Z,9.30
2022-09-28T00:03:52.967Z,9.20
2022-09-28T00:06:24.324Z,9.10
2022-09-28T00:08:51.679Z,9.10
2022-09-28T00:11:21.143Z,9.20
2022-09-28T00:13:53.716Z,9.20
2022-09-28T00:16:26.041Z,9.30
2022-09-28T00:18:54.362Z,9.10
2022-09-28T00:21:23.568Z,9.20
2022-09-28T00:24:15.551Z,9.20
2022-09-28T00:26:49.526Z,9.10
2022-09-28T00:29:24.354Z,9.10
2022-09-28T00:31:53.465Z,9.20
2022-09-28T00:34:21.885Z,9.20
2022-09-28T00:36:49.523Z,9.20
2022-09-28T00:39:17.529Z,9.20
2022-09-28T00:41:46.662Z,9.20
2022-09-28T00:44:26.181Z,9.20
2022-09-28T00:47:27.641Z,9.20
2022-09-28T00:50:05.482Z,9.20
2022-09-28T00:52:55.111Z,9.30
2022-09-28T00:55:40.290Z,9.20
2022-09-28T00:58:11.495Z,9.40
2022-09-28T01:00:40.946Z,9.30
2022-09-28T01:03:09.358Z,9.20
2022-09-28T01:05:38.987Z,9.10
2022-09-28T01:08:07.351Z,9.20
2022-09-28T01:10:34.935Z,9.30
2022-09-28T01:13:02.345Z,9.10
2022-09-28T01:15:31.123Z,9.00
2022-09-28T01:18:18.846Z,9.00
2022-09-28T01:21:07.799Z,9.00
2022-09-28T01:23:53.816Z,8.90
2022-09-28T01:26:50.180Z,8.90
2022-09-28T01:29:45.014Z,9.00
2022-09-28T01:32:26.605Z,8.90
2022-09-28T01:35:00.058Z,9.00
2022-09-28T01:37:36.472Z,8.90
2022-09-28T01:40:07.002Z,8.90
2022-09-28T01:42:37.139Z,8.90
2022-09-28T01:45:14.824Z,8.90
2022-09-28T01:47:45.212Z,8.90
2022-09-28T01:50:16.255Z,8.90
2022-09-28T01:53:12.298Z,8.90
2022-09-28T01:55:48.196Z,9.00
2022-09-28T01:58:38.124Z,9.00
2022-09-28T02:01:31.740Z,9.00
2022-09-28T02:04:16.956Z,9.00
2022-09-28T02:06:54.039Z,9.10
2022-09-28T02:09:31.773Z,9.10
2022-09-28T02:12:08.623Z,9.10
2022-09-28T02:14:39.177Z,9.10
2022-09-28T02:17:07.075Z,9.20
2022-09-28T02:19:35.827Z,9.20
2022-09-28T02:22:27.888Z,9.20
2022-09-28T02:25:07.714Z,9.20
2022-09-28T02:27:40.837Z,9.20
2022-09-28T02:30:08.897Z,9.20
2022-09-28T02:32:40.753Z,9.20
2022-09-28T02:35:11.520Z,9.30
2022-09-28T02:37:42.087Z,9.30
2022-09-28T02:40:14.429Z,9.30
2022-09-28T02:43:24.386Z,9.30
2022-09-28T02:46:23.256Z,9.30
2022-09-28T02:49:35.373Z,9.30
2022-09-28T02:52:39.724Z,9.30
2022-09-28T02:55:29.000Z,9.20
2022-09-28T02:58:06.710Z,9.10
2022-09-28T03:00:43.803Z,9.00
2022-09-28T03:03:19.909Z,9.00
2022-09-28T03:05:53.012Z,9.00
2022-09-28T03:08:30.183Z,8.90
2022-09-28T03:11:15.090Z,8.90
2022-09-28T03:13:43.793Z,8.80
2022-09-28T03:16:15.410Z,8.80
2022-09-28T03:18:45.417Z,8.80
2022-09-28T03:21:13.940Z,8.80
2022-09-28T03:23:42.079Z,9.20
2022-09-28T03:26:12.103Z,8.80
2022-09-28T03:28:39.684Z,8.70
2022-09-28T03:31:09.891Z,8.70
2022-09-28T03:33:37.337Z,8.70
2022-09-28T03:36:04.660Z,8.60
2022-09-28T03:38:31.986Z,8.70
2022-09-28T03:41:00.533Z,8.70
2022-09-28T03:43:33.367Z,8.60
2022-09-28T03:46:03.386Z,8.60
2022-09-28T03:48:35.920Z,8.60
2022-09-28T03:51:05.727Z,8.60
2022-09-28T03:53:33.655Z,8.60
2022-09-28T03:56:07.139Z,8.60
2022-09-28T03:58:35.269Z,8.60
2022-09-28T04:01:14.130Z,8.60
2022-09-28T04:03:46.069Z,8.70
2022-09-28T04:06:14.464Z,8.70
2022-09-28T04:08:43.546Z,9.10
2022-09-28T04:11:11.545Z,8.70
2022-09-28T04:13:39.116Z,8.70
2022-09-28T04:16:10.659Z,8.60
2022-09-28T04:18:39.812Z,8.70
2022-09-28T04:21:21.149Z,8.60
2022-09-28T04:24:09.395Z,8.70
2022-09-28T04:26:38.760Z,8.70
2022-09-28T04:29:18.524Z,8.60
2022-09-28T04:31:56.724Z,8.60
2022-09-28T04:34:37.087Z,8.70
2022-09-28T04:37:05.943Z,8.90
2022-09-28T04:39:33.116Z,8.70
2022-09-28T04:42:01.191Z,8.70
2022-09-28T04:44:28.969Z,8.70
2022-09-28T04:47:04.329Z,8.60
2022-09-28T04:49:33.672Z,8.70
2022-09-28T04:52:18.231Z,8.80
2022-09-28T04:54:48.243Z,8.70
2022-09-28T04:57:16.715Z,8.70
2022-09-28T04:59:44.247Z,8.80
2022-09-28T05:02:14.904Z,8.80
2022-09-28T05:05:17.661Z,8.70
2022-09-28T05:08:08.047Z,8.70
2022-09-28T05:10:35.514Z,8.80
2022-09-28T05:13:02.963Z,8.70
2022-09-28T05:15:30.912Z,8.70
2022-09-28T05:17:59.596Z,8.70
2022-09-28T05:20:39.537Z,8.70
2022-09-28T05:23:09.752Z,8.70
2022-09-28T05:25:37.479Z,8.70
2022-09-28T05:28:24.012Z,8.70
2022-09-28T05:31:14.153Z,8.70
2022-09-28T05:33:59.899Z,8.80
2022-09-28T05:36:27.813Z,8.70
2022-09-28T05:38:55.046Z,8.80
2022-09-28T05:41:22.357Z,8.70
2022-09-28T05:43:51.583Z,8.80
2022-09-28T05:46:20.148Z,8.90
2022-09-28T05:48:48.404Z,8.90
2022-09-28T05:51:15.671Z,8.90
2022-09-28T05:53:42.851Z,8.90
2022-09-28T05:56:10.507Z,9.00
2022-09-28T05:58:41.519Z,8.90
2022-09-28T06:01:09.925Z,9.00
2022-09-28T06:03:37.613Z,9.00
2022-09-28T06:06:05.160Z,9.00
2022-09-28T06:08:33.132Z,9.00
2022-09-28T06:11:35.664Z,9.00
2022-09-28T06:14:13.769Z,9.20
2022-09-28T06:16:43.949Z,9.00
2022-09-28T06:19:12.389Z,8.90
2022-09-28T06:21:59.708Z,9.10
2022-09-28T06:24:27.573Z,8.90
2022-09-28T06:26:54.739Z,8.90
2022-09-28T06:29:22.724Z,8.80
2022-09-28T06:31:49.878Z,8.80
2022-09-28T06:34:18.977Z,8.80
2022-09-28T06:36:46.553Z,8.80
2022-09-28T06:39:13.894Z,8.70
2022-09-28T06:41:41.764Z,8.70
2022-09-28T06:44:14.980Z,8.80
2022-09-28T06:47:01.175Z,8.80
2022-09-28T06:49:47.814Z,8.90
2022-09-28T06:52:52.596Z,9.00
2022-09-28T06:55:43.272Z,9.00
2022-09-28T06:58:12.514Z,8.90
2022-09-28T07:00:40.586Z,8.90
2022-09-28T07:03:11.523Z,9.00
2022-09-28T07:05:57.224Z,9.10
2022-09-28T07:08:59.595Z,9.20
2022-09-28T07:11:44.681Z,9.20
2022-09-28T07:14:40.624Z,9.20
2022-09-28T07:17:14.413Z,9.40
2022-09-28T07:19:44.380Z,9.30
2022-09-28T07:22:18.551Z,9.40
2022-09-28T07:24:48.105Z,9.50
2022-09-28T07:27:39.521Z,9.50
2022-09-28T07:30:44.128Z,9.40
2022-09-28T07:33:19.000Z,9.60
2022-09-28T07:35:55.996Z,9.60
2022-09-28T07:38:27.692Z,9.60
2022-09-28T07:41:11.646Z,9.60
2022-09-28T07:43:44.209Z,9.60
2022-09-28T07:46:12.268Z,9.60
2022-09-28T07:48:45.605Z,9.70
2022-09-28T07:51:24.730Z,9.70
2022-09-28T07:54:03.806Z,9.80
2022-09-28T07:56:49.311Z,9.90
2022-09-28T07:59:22.977Z,9.90
2022-09-28T08:02:10.551Z,9.90
2022-09-28T08:04:37.966Z,9.80
2022-09-28T08:07:11.719Z,9.80
2022-09-28T08:09:39.774Z,9.90
2022-09-28T08:12:25.626Z,9.80
2022-09-28T08:15:12.003Z,9.90
2022-09-28T08:18:07.185Z,9.90
2022-09-28T08:20:52.977Z,9.90
2022-09-28T08:23:20.477Z,9.90
2022-09-28T08:25:49.051Z,10.00
2022-09-28T08:28:17.595Z,10.00
2022-09-28T08:30:47.624Z,9.90
2022-09-28T08:33:27.181Z,10.00
2022-09-28T08:36:12.899Z,10.20
2022-09-28T08:39:18.249Z,10.10
2022-09-28T08:42:39.784Z,10.10
2022-09-28T08:45:35.934Z,10.10
2022-09-28T08:49:01.258Z,10.20
2022-09-28T08:51:57.852Z,10.40
2022-09-28T08:54:58.556Z,10.30
2022-09-28T08:57:57.687Z,10.30
2022-09-28T09:00:44.700Z,10.30
2022-09-28T09:03:15.994Z,10.40
2022-09-28T09:06:29.671Z,10.40
2022-09-28T09:09:13.319Z,10.40
2022-09-28T09:12:00.655Z,10.50
2022-09-28T09:14:50.415Z,10.60
2022-09-28T09:17:43.789Z,10.70
2022-09-28T09:20:56.964Z,10.70
2022-09-28T09:23:56.512Z,10.60
2022-09-28T09:26:39.044Z,10.20
2022-09-28T09:29:32.072Z,9.80
2022-09-28T09:32:20.507Z,9.80
2022-09-28T09:34:59.208Z,9.60
2022-09-28T09:38:03.211Z,9.40
2022-09-28T09:41:00.866Z,9.20
2022-09-28T09:44:11.682Z,9.00
2022-09-28T09:47:07.694Z,9.10
2022-09-28T09:50:14.985Z,9.20
2022-09-28T09:53:00.067Z,8.90
2022-09-28T09:55:30.480Z,9.10
2022-09-28T09:58:36.296Z,9.10
2022-09-28T10:01:32.841Z,9.20
2022-09-28T10:04:24.522Z,9.40
2022-09-28T10:06:58.785Z,9.40
2022-09-28T10:09:41.072Z,9.50
2022-09-28T10:12:23.909Z,9.50
2022-09-28T10:14:51.371Z,9.50
2022-09-28T10:17:19.964Z,9.30
2022-09-28T10:20:11.493Z,9.40
2022-09-28T10:23:04.696Z,9.40
2022-09-28T10:25:37.437Z,9.50
2022-09-28T10:28:12.002Z,9.50
2022-09-28T10:30:42.668Z,9.80
2022-09-28T10:33:29.962Z,9.80
2022-09-28T10:35:58.578Z,9.70
2022-09-28T10:38:26.328Z,9.80
2022-09-28T10:41:01.563Z,9.90
2022-09-28T10:44:06.032Z,9.90
2022-09-28T10:47:03.800Z,10.10
2022-09-28T10:49:47.092Z,10.20
2022-09-28T10:52:35.583Z,10.20
2022-09-28T10:55:23.801Z,10.40
2022-09-28T10:57:51.095Z,10.50
2022-09-28T11:00:30.786Z,10.70
2022-09-28T11:03:26.048Z,10.70
2022-09-28T11:06:08.606Z,10.80
2022-09-28T11:08:41.746Z,10.90
2022-09-28T11:11:15.539Z,11.00
2022-09-28T11:13:47.717Z,11.10
2022-09-28T11:16:22.967Z,11.20
2022-09-28T11:18:51.331Z,11.40
2022-09-28T11:21:24.865Z,11.40
2022-09-28T11:24:21.399Z,11.50
2022-09-28T11:27:00.120Z,11.30
2022-09-28T11:29:43.404Z,11.30
2022-09-28T11:32:43.811Z,11.30
2022-09-28T11:35:27.988Z,11.30
2022-09-28T11:38:15.947Z,11.30
2022-09-28T11:41:15.035Z,11.30
2022-09-28T11:44:33.297Z,11.20
2022-09-28T11:47:31.793Z,11.30
2022-09-28T11:50:35.897Z,11.40
2022-09-28T11:53:03.058Z,11.60
2022-09-28T11:55:36.595Z,11.60
2022-09-28T11:58:09.609Z,11.60
2022-09-28T12:00:45.838Z,11.60
2022-09-28T12:03:23.364Z,11.60
2022-09-28T12:06:07.811Z,11.60
2022-09-28T12:08:40.931Z,11.60
2022-09-28T12:11:43.902Z,11.50
2022-09-28T12:14:29.020Z,11.50
2022-09-28T12:17:07.619Z,11.60
2022-09-28T12:19:47.422Z,11.60
2022-09-28T12:22:26.661Z,11.80
2022-09-28T12:24:57.491Z,11.80
2022-09-28T12:27:47.348Z,11.90
2022-09-28T12:30:20.593Z,11.90
2022-09-28T12:33:06.483Z,11.70
2022-09-28T12:35:46.067Z,11.60
2022-09-28T12:38:25.905Z,11.60
2022-09-28T12:40:59.457Z,11.50
2022-09-28T12:43:38.524Z,11.40
2022-09-28T12:46:24.286Z,11.50
2022-09-28T12:49:24.119Z,11.50
2022-09-28T12:51:52.220Z,11.40
2022-09-28T12:54:44.451Z,11.40
2022-09-28T12:57:35.192Z,11.10
2022-09-28T13:00:22.828Z,11.00
2022-09-28T13:03:37.672Z,11.00
2022-09-28T13:06:13.669Z,11.30
2022-09-28T13:09:01.368Z,11.40
2022-09-28T13:11:31.796Z,11.20
2022-09-28T13:14:23.776Z,11.10
2022-09-28T13:17:26.674Z,11.00
2022-09-28T13:20:20.619Z,11.10
2022-09-28T13:22:55.027Z,11.10
2022-09-28T13:25:27.051Z,10.90
2022-09-28T13:28:02.737Z,10.70
2022-09-28T13:30:32.669Z,10.60
2022-09-28T13:33:03.196Z,10.40
2022-09-28T13:35:31.307Z,10.20
2022-09-28T13:38:17.371Z,10.10
2022-09-28T13:41:03.623Z,10.00
2022-09-28T13:43:41.223Z,10.00
2022-09-28T13:46:39.549Z,9.90
2022-09-28T13:49:56.251Z,10.00
2022-09-28T13:52:47.774Z,9.90
2022-09-28T13:55:33.128Z,10.10
2022-09-28T13:58:18.976Z,10.20
2022-09-28T14:01:16.058Z,10.10
2022-09-28T14:03:57.172Z,10.20
2022-09-28T14:06:32.736Z,10.20
2022-09-28T14:09:05.934Z,10.20
2022-09-28T14:11:36.765Z,10.20
2022-09-28T14:14:14.191Z,10.20
2022-09-28T14:16:42.286Z,10.20
2022-09-28T14:19:24.165Z,10.40
2022-09-28T14:22:07.618Z,10.30
2022-09-28T14:24:40.604Z,10.40
2022-09-28T14:27:29.540Z,10.50
2022-09-28T14:30:11.936Z,10.40
2022-09-28T14:32:43.078Z,10.50
2022-09-28T14:35:39.643Z,10.60
2022-09-28T14:38:34.401Z,10.60
2022-09-28T14:41:15.244Z,10.60
2022-09-28T14:43:45.418Z,10.30
2022-09-28T14:46:16.867Z,10.30
2022-09-28T14:49:13.592Z,10.30
2022-09-28T14:51:40.712Z,10.30
2022-09-28T14:54:07.820Z,10.40
2022-09-28T14:56:50.020Z,10.40
2022-09-28T14:59:36.606Z,10.40
2022-09-28T15:02:19.205Z,10.30
2022-09-28T15:04:49.751Z,10.30
2022-09-28T15:07:22.929Z,10.30
2022-09-28T15:09:55.117Z,10.30
2022-09-28T15:12:28.562Z,10.20
2022-09-28T15:15:05.469Z,10.20
2022-09-28T15:17:40.274Z,10.30
2022-09-28T15:20:19.799Z,10.30
2022-09-28T15:22:48.767Z,10.40
2022-09-28T15:25:19.886Z,10.40
2022-09-28T15:27:58.786Z,10.40
2022-09-28T15:30:31.850Z,10.40
2022-09-28T15:33:19.904Z,10.40
2022-09-28T15:36:05.973Z,10.30
2022-09-28T15:38:34.776Z,10.30
2022-09-28T15:41:06.682Z,10.30
2022-09-28T15:43:34.849Z,10.20
2022-09-28T15:46:18.100Z,10.20
2022-09-28T15:48:55.769Z,10.30
2022-09-28T15:51:28.281Z,10.30
2022-09-28T15:54:04.507Z,10.30
2022-09-28T15:56:31.825Z,10.30
2022-09-28T15:59:14.010Z,10.40
2022-09-28T16:01:43.455Z,10.30
2022-09-28T16:04:54.101Z,10.20
2022-09-28T16:07:33.208Z,10.20
2022-09-28T16:10:12.844Z,10.20
2022-09-28T16:12:39.939Z,10.20
2022-09-28T16:15:26.540Z,10.10
2022-09-28T16:17:56.551Z,10.10
2022-09-28T16:20:33.983Z,10.00
2022-09-28T16:23:09.449Z,10.00
2022-09-28T16:25:39.391Z,10.00
2022-09-28T16:28:06.994Z,10.00
2022-09-28T16:30:34.728Z,10.00
2022-09-28T16:33:25.911Z,10.10
2022-09-28T16:35:53.512Z,10.00
2022-09-28T16:38:21.042Z,9.90
2022-09-28T16:40:50.674Z,9.80
2022-09-28T16:43:30.344Z,9.80
2022-09-28T16:46:00.712Z,9.80
2022-09-28T16:48:30.581Z,9.80
2022-09-28T16:51:00.936Z,9.80
2022-09-28T16:53:46.621Z,9.70
2022-09-28T16:56:13.908Z,9.80
2022-09-28T16:58:42.384Z,9.70
2022-09-28T17:01:12.241Z,9.80
2022-09-28T17:03:42.245Z,9.60
2022-09-28T17:06:11.360Z,9.60
2022-09-28T17:08:38.814Z,9.60
2022-09-28T17:11:16.931Z,9.60
2022-09-28T17:13:47.371Z,9.60
2022-09-28T17:16:18.281Z,9.70
2022-09-28T17:18:47.000Z,9.50
2022-09-28T17:21:18.063Z,9.50
2022-09-28T17:23:47.065Z,9.50
2022-09-28T17:26:27.687Z,9.60
2022-09-28T17:28:54.923Z,9.40
2022-09-28T17:31:22.152Z,9.40
2022-09-28T17:33:50.029Z,9.40
2022-09-28T17:36:18.587Z,9.40
2022-09-28T17:38:47.718Z,9.40
2022-09-28T17:41:20.366Z,9.40
2022-09-28T17:43:49.308Z,9.50
2022-09-28T17:46:28.095Z,9.40
2022-09-28T17:48:59.305Z,9.40
2022-09-28T17:51:32.417Z,9.40
2022-09-28T17:54:01.032Z,9.50
2022-09-28T17:56:32.136Z,9.40
2022-09-28T17:59:03.127Z,9.40
2022-09-28T18:01:33.946Z,9.40
2022-09-28T18:04:04.897Z,9.30
2022-09-28T18:06:36.970Z,9.40
2022-09-28T18:09:05.112Z,9.50
2022-09-28T18:11:33.784Z,9.40
2022-09-28T18:14:01.144Z,9.40
2022-09-28T18:16:28.786Z,9.40
2022-09-28T18:18:56.557Z,9.40
2022-09-28T18:21:23.801Z,9.40
2022-09-28T18:23:51.110Z,9.50
2022-09-28T18:26:21.175Z,9.40
2022-09-28T18:28:48.408Z,9.30
2022-09-28T18:31:16.002Z,9.30
2022-09-28T18:33:43.366Z,9.40
2022-09-28T18:36:10.905Z,9.30
2022-09-28T18:38:38.532Z,9.30
2022-09-28T18:41:10.575Z,9.30
2022-09-28T18:43:37.938Z,9.20
2022-09-28T18:46:09.765Z,9.20
2022-09-28T18:48:37.704Z,9.10
2022-09-28T18:51:08.923Z,9.10
2022-09-28T18:53:36.640Z,9.00
2022-09-28T18:56:09.530Z,8.90
2022-09-28T18:58:38.602Z,8.90
2022-09-28T19:01:29.461Z,8.90
2022-09-28T19:04:02.436Z,8.80
2022-09-28T19:06:29.753Z,8.80
2022-09-28T19:08:57.108Z,9.20
2022-09-28T19:11:25.272Z,8.80
2022-09-28T19:13:54.375Z,8.60
2022-09-28T19:16:24.374Z,8.70
2022-09-28T19:18:53.519Z,8.70
2022-09-28T19:21:21.230Z,8.60
2022-09-28T19:23:53.494Z,8.60
2022-09-28T19:26:26.118Z,8.50
2022-09-28T19:28:53.977Z,8.60
2022-09-28T19:31:21.775Z,8.60
2022-09-28T19:33:49.893Z,8.70
2022-09-28T19:36:19.742Z,8.80
2022-09-28T19:38:47.020Z,8.70
2022-09-28T19:41:39.004Z,8.70
2022-09-28T19:44:15.755Z,8.80
2022-09-28T19:46:43.233Z,8.80
2022-09-28T19:49:13.494Z,8.80
2022-09-28T19:52:01.704Z,8.80
2022-09-28T19:54:35.526Z,8.80
2022-09-28T19:57:08.867Z,8.80
2022-09-28T19:59:37.486Z,8.70
2022-09-28T20:02:06.661Z,8.70
2022-09-28T20:04:33.907Z,8.70
2022-09-28T20:07:01.730Z,8.60
2022-09-28T20:09:29.814Z,8.60
2022-09-28T20:11:57.229Z,8.60
2022-09-28T20:14:26.031Z,8.50
2022-09-28T20:16:57.904Z,8.60
2022-09-28T20:19:25.289Z,8.60
2022-09-28T20:21:52.459Z,8.70
2022-09-28T20:24:19.618Z,8.60
2022-09-28T20:26:46.864Z,8.70
2022-09-28T20:29:16.674Z,8.70
2022-09-28T20:31:43.995Z,8.70
2022-09-28T20:34:12.375Z,8.70
2022-09-28T20:36:42.356Z,8.70
2022-09-28T20:39:10.457Z,8.70
2022-09-28T20:41:37.711Z,8.80
2022-09-28T20:44:06.612Z,8.70
2022-09-28T20:46:35.217Z,8.70
2022-09-28T20:49:03.506Z,8.70
2022-09-28T20:51:31.355Z,8.70
2022-09-28T20:53:59.285Z,8.90
2022-09-28T20:56:29.184Z,8.70
2022-09-28T20:58:56.890Z,8.70
2022-09-28T21:01:26.142Z,8.70
2022-09-28T21:03:55.350Z,8.70
2022-09-28T21:06:27.832Z,8.60
2022-09-28T21:08:55.036Z,8.70
2022-09-28T21:11:23.906Z,8.60
2022-09-28T21:13:59.760Z,8.60
2022-09-28T21:16:29.804Z,8.60
2022-09-28T21:18:57.308Z,8.50
2022-09-28T21:21:25.626Z,8.50
2022-09-28T21:23:56.866Z,8.50
2022-09-28T21:26:26.730Z,8.50
2022-09-28T21:28:54.064Z,8.40
2022-09-28T21:31:27.706Z,8.50
2022-09-28T21:33:56.902Z,8.50
2022-09-28T21:36:25.123Z,8.50
2022-09-28T21:38:54.090Z,8.50
2022-09-28T21:41:21.517Z,8.50
2022-09-28T21:43:48.824Z,8.50
2022-09-28T21:46:17.391Z,8.50
2022-09-28T21:48:44.697Z,8.70
2022-09-28T21:51:15.326Z,8.60
2022-09-28T21:53:42.984Z,8.60
2022-09-28T21:56:12.733Z,8.70
2022-09-28T21:58:40.692Z,8.70
2022-09-28T22:01:14.898Z,8.70
2022-09-28T22:03:44.164Z,8.70
2022-09-28T22:06:11.946Z,8.60
2022-09-28T22:08:40.765Z,8.60
2022-09-28T22:11:11.017Z,8.60
2022-09-28T22:13:49.335Z,8.50
2022-09-28T22:16:18.795Z,8.50
2022-09-28T22:18:46.430Z,8.50
2022-09-28T22:21:16.708Z,8.50
2022-09-28T22:23:44.356Z,8.50
2022-09-28T22:26:20.225Z,8.50
2022-09-28T22:28:49.814Z,8.50
2022-09-28T22:31:18.818Z,8.50
2022-09-28T22:33:46.039Z,8.40
2022-09-28T22:36:16.812Z,8.40
2022-09-28T22:38:44.928Z,8.40
2022-09-28T22:41:14.459Z,8.40
2022-09-28T22:43:42.917Z,8.40
2022-09-28T22:46:12.388Z,8.40
2022-09-28T22:48:40.509Z,8.50
2022-09-28T22:51:08.066Z,8.60
2022-09-28T22:53:35.739Z,8.50
2022-09-28T22:56:06.370Z,8.40
2022-09-28T22:58:34.589Z,8.40
2022-09-28T23:01:11.942Z,8.40
2022-09-28T23:03:42.799Z,8.40
2022-09-28T23:06:10.860Z,8.50
2022-09-28T23:08:38.652Z,8.50
2022-09-28T23:11:06.639Z,8.50
2022-09-28T23:13:34.969Z,8.60
2022-09-28T23:16:08.711Z,8.60
2022-09-28T23:18:38.777Z,8.50
2022-09-28T23:21:09.812Z,8.50
2022-09-28T23:23:36.968Z,8.60
2022-09-28T23:26:17.802Z,8.50
2022-09-28T23:28:46.073Z,8.50
2022-09-28T23:31:20.271Z,8.50
2022-09-28T23:33:47.718Z,8.50
2022-09-28T23:36:16.008Z,8.50
2022-09-28T23:38:43.638Z,8.50
2022-09-28T23:41:11.294Z,8.50
2022-09-28T23:43:38.600Z,8.50
2022-09-28T23:46:06.377Z,8.60
2022-09-28T23:48:35.160Z,8.60
2022-09-28T23:51:02.842Z,8.80
2022-09-28T23:53:32.324Z,8.70
2022-09-28T23:55:59.803Z,8.80
2022-09-28T23:58:27.440Z,8.60
